Warner Robins, Georgia
Current Conditions -  °F | °C
As of 11:26 PM on Saturday 22 Nov 2014 (Local Time) from KWRB Reporting Station
Scattered Clouds Scattered Clouds  
Wind Chill: 50°   Ceiling: Unl
Heat Index: 50°   Visibility: 10mi
Dew Point: 48°   Wind: 5mph
Humidity: 94%   Direction: 100°E
Pressure: 30.18"   Gusts: NA
Location:  32.62°N, 83.61°W
Report Text: KWRB 230426Z AUTO 10004KT 10SM SCT042 10/09 A3018 RMK AO2
Loading
Personal Weather Stations






























Interactive Weather Map New forecast layout! Learn more

10-Day Weather Forecast

Advertisements
Track Severe Weather on mobile